sensor_id;sensor_type;location;lat;lon;timestamp;temperature;humidity
37222;DHT22;23119;51.842;-2.230;2022-12-18T00:02:15;2.10;99.90
37222;DHT22;23119;51.842;-2.230;2022-12-18T00:04:41;2.10;99.90
37222;DHT22;23119;51.842;-2.230;2022-12-18T00:07:10;2.00;99.90
37222;DHT22;23119;51.842;-2.230;2022-12-18T00:09:41;2.00;99.90
37222;DHT22;23119;51.842;-2.230;2022-12-18T00:12:07;2.00;99.90
37222;DHT22;23119;51.842;-2.230;2022-12-18T00:14:32;1.80;99.90
37222;DHT22;23119;51.842;-2.230;2022-12-18T00:17:03;1.80;99.90
37222;DHT22;23119;51.842;-2.230;2022-12-18T00:19:32;1.80;99.90
37222;DHT22;23119;51.842;-2.230;2022-12-18T00:24:26;1.80;99.90
37222;DHT22;23119;51.842;-2.230;2022-12-18T00:26:54;1.70;99.90
37222;DHT22;23119;51.842;-2.230;2022-12-18T00:29:20;1.60;99.90
37222;DHT22;23119;51.842;-2.230;2022-12-18T00:31:46;1.70;99.90
37222;DHT22;23119;51.842;-2.230;2022-12-18T00:34:12;1.50;99.90
37222;DHT22;23119;51.842;-2.230;2022-12-18T00:36:39;1.40;99.90
37222;DHT22;23119;51.842;-2.230;2022-12-18T00:39:09;1.40;99.90
37222;DHT22;23119;51.842;-2.230;2022-12-18T00:41:35;1.30;99.90
37222;DHT22;23119;51.842;-2.230;2022-12-18T00:44:20;1.30;99.90
37222;DHT22;23119;51.842;-2.230;2022-12-18T00:46:47;1.10;99.90
37222;DHT22;23119;51.842;-2.230;2022-12-18T00:49:16;1.10;99.90
37222;DHT22;23119;51.842;-2.230;2022-12-18T00:54:09;0.90;99.90
37222;DHT22;23119;51.842;-2.230;2022-12-18T00:56:36;0.70;99.90
37222;DHT22;23119;51.842;-2.230;2022-12-18T01:01:28;0.60;99.90
37222;DHT22;23119;51.842;-2.230;2022-12-18T01:03:56;0.60;99.90
37222;DHT22;23119;51.842;-2.230;2022-12-18T01:06:22;0.80;99.90
37222;DHT22;23119;51.842;-2.230;2022-12-18T01:08:48;0.60;99.90
37222;DHT22;23119;51.842;-2.230;2022-12-18T01:11:17;0.60;99.90
37222;DHT22;23119;51.842;-2.230;2022-12-18T01:13:43;0.50;99.90
37222;DHT22;23119;51.842;-2.230;2022-12-18T01:16:12;0.50;99.90
37222;DHT22;23119;51.842;-2.230;2022-12-18T01:21:08;0.50;99.90
37222;DHT22;23119;51.842;-2.230;2022-12-18T01:23:35;0.60;99.90
37222;DHT22;23119;51.842;-2.230;2022-12-18T01:26:08;0.50;99.90
37222;DHT22;23119;51.842;-2.230;2022-12-18T01:28:38;0.60;99.90
37222;DHT22;23119;51.842;-2.230;2022-12-18T01:33:42;0.40;99.90
37222;DHT22;23119;51.842;-2.230;2022-12-18T01:36:24;0.40;99.90
37222;DHT22;23119;51.842;-2.230;2022-12-18T01:38:51;0.60;99.90
37222;DHT22;23119;51.842;-2.230;2022-12-18T01:41:27;0.90;99.90
37222;DHT22;23119;51.842;-2.230;2022-12-18T01:47:41;0.50;99.90
37222;DHT22;23119;51.842;-2.230;2022-12-18T01:50:15;0.50;99.90
37222;DHT22;23119;51.842;-2.230;2022-12-18T01:52:48;0.50;99.90
37222;DHT22;23119;51.842;-2.230;2022-12-18T01:55:16;0.50;99.90
37222;DHT22;23119;51.842;-2.230;2022-12-18T01:57:43;0.50;99.90
37222;DHT22;23119;51.842;-2.230;2022-12-18T02:00:15;0.60;99.90
37222;DHT22;23119;51.842;-2.230;2022-12-18T02:02:43;0.70;99.90
37222;DHT22;23119;51.842;-2.230;2022-12-18T02:05:10;1.10;99.90
37222;DHT22;23119;51.842;-2.230;2022-12-18T02:07:53;0.70;99.90
37222;DHT22;23119;51.842;-2.230;2022-12-18T02:10:27;0.70;99.90
37222;DHT22;23119;51.842;-2.230;2022-12-18T02:13:10;0.70;99.90
37222;DHT22;23119;51.842;-2.230;2022-12-18T02:15:44;0.70;99.90
37222;DHT22;23119;51.842;-2.230;2022-12-18T02:18:44;0.70;99.90
37222;DHT22;23119;51.842;-2.230;2022-12-18T02:26:58;0.70;99.90
37222;DHT22;23119;51.842;-2.230;2022-12-18T02:29:28;0.70;99.90
37222;DHT22;23119;51.842;-2.230;2022-12-18T02:31:58;0.70;99.90
37222;DHT22;23119;51.842;-2.230;2022-12-18T02:34:28;0.80;99.90
37222;DHT22;23119;51.842;-2.230;2022-12-18T02:36:55;0.70;99.90
37222;DHT22;23119;51.842;-2.230;2022-12-18T02:39:27;0.60;99.90
37222;DHT22;23119;51.842;-2.230;2022-12-18T02:41:58;0.70;99.90
37222;DHT22;23119;51.842;-2.230;2022-12-18T02:44:25;0.70;99.90
37222;DHT22;23119;51.842;-2.230;2022-12-18T02:46:52;0.80;99.90
37222;DHT22;23119;51.842;-2.230;2022-12-18T02:49:40;0.90;99.90
37222;DHT22;23119;51.842;-2.230;2022-12-18T02:55:28;1.00;99.90
37222;DHT22;23119;51.842;-2.230;2022-12-18T02:58:08;0.90;99.90
37222;DHT22;23119;51.842;-2.230;2022-12-18T03:00:49;1.00;99.90
37222;DHT22;23119;51.842;-2.230;2022-12-18T03:03:25;0.90;99.90
37222;DHT22;23119;51.842;-2.230;2022-12-18T03:05:55;1.10;99.90
37222;DHT22;23119;51.842;-2.230;2022-12-18T03:08:25;1.00;99.90
37222;DHT22;23119;51.842;-2.230;2022-12-18T03:11:02;1.20;99.90
37222;DHT22;23119;51.842;-2.230;2022-12-18T03:13:35;1.10;99.90
37222;DHT22;23119;51.842;-2.230;2022-12-18T03:16:03;1.10;99.90
37222;DHT22;23119;51.842;-2.230;2022-12-18T03:18:38;1.10;99.90
37222;DHT22;23119;51.842;-2.230;2022-12-18T03:21:06;1.20;99.90
37222;DHT22;23119;51.842;-2.230;2022-12-18T03:23:40;1.20;99.90
37222;DHT22;23119;51.842;-2.230;2022-12-18T03:26:10;1.30;99.90
37222;DHT22;23119;51.842;-2.230;2022-12-18T03:28:50;1.30;99.90
37222;DHT22;23119;51.842;-2.230;2022-12-18T03:31:23;1.20;99.90
37222;DHT22;23119;51.842;-2.230;2022-12-18T03:34:01;1.40;99.90
37222;DHT22;23119;51.842;-2.230;2022-12-18T03:36:28;1.20;99.90
37222;DHT22;23119;51.842;-2.230;2022-12-18T03:38:54;1.20;99.90
37222;DHT22;23119;51.842;-2.230;2022-12-18T03:41:31;1.20;99.90
37222;DHT22;23119;51.842;-2.230;2022-12-18T03:44:00;1.20;99.90
37222;DHT22;23119;51.842;-2.230;2022-12-18T03:49:26;1.10;99.90
37222;DHT22;23119;51.842;-2.230;2022-12-18T03:52:06;1.10;99.90
37222;DHT22;23119;51.842;-2.230;2022-12-18T03:54:35;1.00;99.90
37222;DHT22;23119;51.842;-2.230;2022-12-18T03:57:12;1.00;99.90
37222;DHT22;23119;51.842;-2.230;2022-12-18T03:59:43;1.00;99.90
37222;DHT22;23119;51.842;-2.230;2022-12-18T04:02:09;1.20;99.90
37222;DHT22;23119;51.842;-2.230;2022-12-18T04:04:40;1.00;99.90
37222;DHT22;23119;51.842;-2.230;2022-12-18T04:07:07;1.00;99.90
37222;DHT22;23119;51.842;-2.230;2022-12-18T04:09:41;1.10;99.90
37222;DHT22;23119;51.842;-2.230;2022-12-18T04:12:11;1.10;99.90
37222;DHT22;23119;51.842;-2.230;2022-12-18T04:14:37;1.10;99.90
37222;DHT22;23119;51.842;-2.230;2022-12-18T04:17:05;1.10;99.90
37222;DHT22;23119;51.842;-2.230;2022-12-18T04:19:33;1.10;99.90
37222;DHT22;23119;51.842;-2.230;2022-12-18T04:21:59;1.20;99.90
37222;DHT22;23119;51.842;-2.230;2022-12-18T04:24:25;1.20;99.90
37222;DHT22;23119;51.842;-2.230;2022-12-18T04:26:51;1.30;99.90
37222;DHT22;23119;51.842;-2.230;2022-12-18T04:29:16;1.20;99.90
37222;DHT22;23119;51.842;-2.230;2022-12-18T04:31:42;1.20;99.90
37222;DHT22;23119;51.842;-2.230;2022-12-18T04:34:08;1.20;99.90
37222;DHT22;23119;51.842;-2.230;2022-12-18T04:36:33;1.20;99.90
37222;DHT22;23119;51.842;-2.230;2022-12-18T04:38:59;1.20;99.90
37222;DHT22;23119;51.842;-2.230;2022-12-18T04:41:25;1.30;99.90
37222;DHT22;23119;51.842;-2.230;2022-12-18T04:43:50;1.30;99.90
37222;DHT22;23119;51.842;-2.230;2022-12-18T04:46:16;1.30;99.90
37222;DHT22;23119;51.842;-2.230;2022-12-18T04:51:11;1.20;99.90
37222;DHT22;23119;51.842;-2.230;2022-12-18T04:53:39;1.20;99.90
37222;DHT22;23119;51.842;-2.230;2022-12-18T04:56:10;1.30;99.90
37222;DHT22;23119;51.842;-2.230;2022-12-18T04:58:38;1.40;99.90
37222;DHT22;23119;51.842;-2.230;2022-12-18T05:01:07;1.40;99.90
37222;DHT22;23119;51.842;-2.230;2022-12-18T05:03:35;1.50;99.90
37222;DHT22;23119;51.842;-2.230;2022-12-18T05:06:02;1.50;99.90
37222;DHT22;23119;51.842;-2.230;2022-12-18T05:08:28;1.50;99.90
37222;DHT22;23119;51.842;-2.230;2022-12-18T05:11:13;1.60;99.90
37222;DHT22;23119;51.842;-2.230;2022-12-18T05:13:44;1.60;99.90
37222;DHT22;23119;51.842;-2.230;2022-12-18T05:16:19;1.60;99.90
37222;DHT22;23119;51.842;-2.230;2022-12-18T05:18:45;1.60;99.90
37222;DHT22;23119;51.842;-2.230;2022-12-18T05:21:11;1.60;99.90
37222;DHT22;23119;51.842;-2.230;2022-12-18T05:23:37;1.60;99.90
37222;DHT22;23119;51.842;-2.230;2022-12-18T05:26:06;1.70;99.90
37222;DHT22;23119;51.842;-2.230;2022-12-18T05:28:34;1.60;99.90
37222;DHT22;23119;51.842;-2.230;2022-12-18T05:31:01;1.70;99.90
37222;DHT22;23119;51.842;-2.230;2022-12-18T05:33:32;1.80;99.90
37222;DHT22;23119;51.842;-2.230;2022-12-18T05:36:02;1.80;99.90
37222;DHT22;23119;51.842;-2.230;2022-12-18T05:38:33;1.80;99.90
37222;DHT22;23119;51.842;-2.230;2022-12-18T05:41:00;1.90;99.90
37222;DHT22;23119;51.842;-2.230;2022-12-18T05:43:27;1.90;99.90
37222;DHT22;23119;51.842;-2.230;2022-12-18T05:45:53;2.00;99.90
37222;DHT22;23119;51.842;-2.230;2022-12-18T05:48:22;2.00;99.90
37222;DHT22;23119;51.842;-2.230;2022-12-18T05:50:51;2.00;99.90
37222;DHT22;23119;51.842;-2.230;2022-12-18T05:53:19;2.10;99.90
37222;DHT22;23119;51.842;-2.230;2022-12-18T05:55:46;2.20;99.90
37222;DHT22;23119;51.842;-2.230;2022-12-18T05:58:13;2.30;99.90
37222;DHT22;23119;51.842;-2.230;2022-12-18T06:00:43;2.30;99.90
37222;DHT22;23119;51.842;-2.230;2022-12-18T06:03:11;2.30;99.90
37222;DHT22;23119;51.842;-2.230;2022-12-18T06:05:44;2.40;99.90
37222;DHT22;23119;51.842;-2.230;2022-12-18T06:08:11;2.40;99.90
37222;DHT22;23119;51.842;-2.230;2022-12-18T06:10:37;2.50;99.90
37222;DHT22;23119;51.842;-2.230;2022-12-18T06:13:06;2.50;99.90
37222;DHT22;23119;51.842;-2.230;2022-12-18T06:15:40;2.50;99.90
37222;DHT22;23119;51.842;-2.230;2022-12-18T06:18:06;2.60;99.90
37222;DHT22;23119;51.842;-2.230;2022-12-18T06:20:31;2.60;99.90
37222;DHT22;23119;51.842;-2.230;2022-12-18T06:22:57;2.60;99.90
37222;DHT22;23119;51.842;-2.230;2022-12-18T06:25:23;2.60;99.90
37222;DHT22;23119;51.842;-2.230;2022-12-18T06:27:48;2.60;99.90
37222;DHT22;23119;51.842;-2.230;2022-12-18T06:30:14;2.60;99.90
37222;DHT22;23119;51.842;-2.230;2022-12-18T06:32:45;2.60;99.90
37222;DHT22;23119;51.842;-2.230;2022-12-18T06:35:11;2.60;99.90
37222;DHT22;23119;51.842;-2.230;2022-12-18T06:37:39;2.60;99.90
37222;DHT22;23119;51.842;-2.230;2022-12-18T06:40:06;2.60;99.90
37222;DHT22;23119;51.842;-2.230;2022-12-18T06:42:32;2.60;99.90
37222;DHT22;23119;51.842;-2.230;2022-12-18T06:45:03;2.60;99.90
37222;DHT22;23119;51.842;-2.230;2022-12-18T06:47:31;2.50;99.90
37222;DHT22;23119;51.842;-2.230;2022-12-18T06:49:57;2.50;99.90
37222;DHT22;23119;51.842;-2.230;2022-12-18T06:52:23;2.50;99.90
37222;DHT22;23119;51.842;-2.230;2022-12-18T06:57:14;2.50;99.90
37222;DHT22;23119;51.842;-2.230;2022-12-18T06:59:43;2.40;99.90
37222;DHT22;23119;51.842;-2.230;2022-12-18T07:02:11;2.50;99.90
37222;DHT22;23119;51.842;-2.230;2022-12-18T07:04:38;2.40;99.90
37222;DHT22;23119;51.842;-2.230;2022-12-18T07:07:06;2.50;99.90
37222;DHT22;23119;51.842;-2.230;2022-12-18T07:09:32;2.80;99.90
37222;DHT22;23119;51.842;-2.230;2022-12-18T07:12:00;2.50;99.90
37222;DHT22;23119;51.842;-2.230;2022-12-18T07:14:26;2.50;99.90
37222;DHT22;23119;51.842;-2.230;2022-12-18T07:16:52;2.50;99.90
37222;DHT22;23119;51.842;-2.230;2022-12-18T07:19:20;2.50;99.90
37222;DHT22;23119;51.842;-2.230;2022-12-18T07:22:06;2.30;99.90
37222;DHT22;23119;51.842;-2.230;2022-12-18T07:24:34;2.50;99.90
37222;DHT22;23119;51.842;-2.230;2022-12-18T07:27:03;2.50;99.90
37222;DHT22;23119;51.842;-2.230;2022-12-18T07:29:29;2.30;99.90
37222;DHT22;23119;51.842;-2.230;2022-12-18T07:31:54;2.60;99.90
37222;DHT22;23119;51.842;-2.230;2022-12-18T07:34:20;2.50;99.90
37222;DHT22;23119;51.842;-2.230;2022-12-18T07:36:48;2.60;99.90
37222;DHT22;23119;51.842;-2.230;2022-12-18T07:39:14;2.50;99.90
37222;DHT22;23119;51.842;-2.230;2022-12-18T07:44:11;2.50;99.90
37222;DHT22;23119;51.842;-2.230;2022-12-18T07:46:38;2.50;99.90
37222;DHT22;23119;51.842;-2.230;2022-12-18T07:49:04;2.50;99.90
37222;DHT22;23119;51.842;-2.230;2022-12-18T07:51:32;2.50;99.90
37222;DHT22;23119;51.842;-2.230;2022-12-18T07:53:58;2.70;99.90
37222;DHT22;23119;51.842;-2.230;2022-12-18T07:58:55;2.60;99.90
37222;DHT22;23119;51.842;-2.230;2022-12-18T08:01:21;2.60;99.90
37222;DHT22;23119;51.842;-2.230;2022-12-18T08:03:47;3.00;99.90
37222;DHT22;23119;51.842;-2.230;2022-12-18T08:06:15;2.60;99.90
37222;DHT22;23119;51.842;-2.230;2022-12-18T08:08:43;2.70;99.90
37222;DHT22;23119;51.842;-2.230;2022-12-18T08:11:14;2.60;99.90
37222;DHT22;23119;51.842;-2.230;2022-12-18T08:13:40;2.60;99.90
37222;DHT22;23119;51.842;-2.230;2022-12-18T08:16:09;2.60;99.90
37222;DHT22;23119;51.842;-2.230;2022-12-18T08:18:36;2.70;99.90
37222;DHT22;23119;51.842;-2.230;2022-12-18T08:21:13;2.70;99.90
37222;DHT22;23119;51.842;-2.230;2022-12-18T08:23:40;2.70;99.90
37222;DHT22;23119;51.842;-2.230;2022-12-18T08:26:06;2.80;99.90
37222;DHT22;23119;51.842;-2.230;2022-12-18T08:28:40;2.80;99.90
37222;DHT22;23119;51.842;-2.230;2022-12-18T08:31:07;2.80;99.90
37222;DHT22;23119;51.842;-2.230;2022-12-18T08:33:33;2.80;99.90
37222;DHT22;23119;51.842;-2.230;2022-12-18T08:36:03;2.90;99.90
37222;DHT22;23119;51.842;-2.230;2022-12-18T08:38:32;2.90;99.90
37222;DHT22;23119;51.842;-2.230;2022-12-18T08:40:59;2.70;99.90
37222;DHT22;23119;51.842;-2.230;2022-12-18T08:43:28;2.90;99.90
37222;DHT22;23119;51.842;-2.230;2022-12-18T08:46:12;3.00;99.90
37222;DHT22;23119;51.842;-2.230;2022-12-18T08:48:41;3.10;99.90
37222;DHT22;23119;51.842;-2.230;2022-12-18T08:51:07;3.10;99.90
37222;DHT22;23119;51.842;-2.230;2022-12-18T08:53:35;3.10;99.90
37222;DHT22;23119;51.842;-2.230;2022-12-18T08:56:02;3.20;99.90
37222;DHT22;23119;51.842;-2.230;2022-12-18T08:58:30;3.20;99.90
37222;DHT22;23119;51.842;-2.230;2022-12-18T09:01:01;3.10;99.90
37222;DHT22;23119;51.842;-2.230;2022-12-18T09:03:30;3.20;99.90
37222;DHT22;23119;51.842;-2.230;2022-12-18T09:05:57;3.20;99.90
37222;DHT22;23119;51.842;-2.230;2022-12-18T09:08:22;3.30;99.90
37222;DHT22;23119;51.842;-2.230;2022-12-18T09:10:51;3.10;99.90
37222;DHT22;23119;51.842;-2.230;2022-12-18T09:13:21;3.20;99.90
37222;DHT22;23119;51.842;-2.230;2022-12-18T09:15:51;3.20;99.90
37222;DHT22;23119;51.842;-2.230;2022-12-18T09:18:23;3.20;99.90
37222;DHT22;23119;51.842;-2.230;2022-12-18T09:20:49;3.20;99.90
37222;DHT22;23119;51.842;-2.230;2022-12-18T09:23:15;3.20;99.90
37222;DHT22;23119;51.842;-2.230;2022-12-18T09:25:41;3.30;99.90
37222;DHT22;23119;51.842;-2.230;2022-12-18T09:28:11;3.20;99.90
37222;DHT22;23119;51.842;-2.230;2022-12-18T09:30:39;3.30;99.90
37222;DHT22;23119;51.842;-2.230;2022-12-18T09:33:07;3.30;99.90
37222;DHT22;23119;51.842;-2.230;2022-12-18T09:35:36;3.30;99.90
37222;DHT22;23119;51.842;-2.230;2022-12-18T09:38:04;3.30;99.90
37222;DHT22;23119;51.842;-2.230;2022-12-18T09:40:36;3.30;99.90
37222;DHT22;23119;51.842;-2.230;2022-12-18T09:43:10;3.30;99.90
37222;DHT22;23119;51.842;-2.230;2022-12-18T09:45:46;3.30;99.90
37222;DHT22;23119;51.842;-2.230;2022-12-18T09:48:28;3.40;99.90
37222;DHT22;23119;51.842;-2.230;2022-12-18T09:51:09;3.40;99.90
37222;DHT22;23119;51.842;-2.230;2022-12-18T09:53:37;3.40;99.90
37222;DHT22;23119;51.842;-2.230;2022-12-18T09:56:04;3.50;99.90
37222;DHT22;23119;51.842;-2.230;2022-12-18T09:58:36;3.40;99.90
37222;DHT22;23119;51.842;-2.230;2022-12-18T10:01:25;3.40;99.90
37222;DHT22;23119;51.842;-2.230;2022-12-18T10:03:54;3.40;99.90
37222;DHT22;23119;51.842;-2.230;2022-12-18T10:09:06;3.40;99.90
37222;DHT22;23119;51.842;-2.230;2022-12-18T10:17:47;3.60;99.90
37222;DHT22;23119;51.842;-2.230;2022-12-18T10:20:17;3.70;99.90
37222;DHT22;23119;51.842;-2.230;2022-12-18T10:25:20;3.70;99.90
37222;DHT22;23119;51.842;-2.230;2022-12-18T10:27:57;3.70;99.90
37222;DHT22;23119;51.842;-2.230;2022-12-18T10:30:24;3.70;99.90
37222;DHT22;23119;51.842;-2.230;2022-12-18T10:32:53;3.80;99.90
37222;DHT22;23119;51.842;-2.230;2022-12-18T10:35:26;3.80;99.90
37222;DHT22;23119;51.842;-2.230;2022-12-18T10:40:32;3.80;99.90
37222;DHT22;23119;51.842;-2.230;2022-12-18T10:43:11;3.80;99.90
37222;DHT22;23119;51.842;-2.230;2022-12-18T10:45:37;3.90;99.90
37222;DHT22;23119;51.842;-2.230;2022-12-18T10:48:18;3.90;99.90
37222;DHT22;23119;51.842;-2.230;2022-12-18T10:50:49;3.90;99.90
37222;DHT22;23119;51.842;-2.230;2022-12-18T10:53:38;3.90;99.90
37222;DHT22;23119;51.842;-2.230;2022-12-18T10:56:05;3.90;99.90
37222;DHT22;23119;51.842;-2.230;2022-12-18T10:58:36;3.90;99.90
37222;DHT22;23119;51.842;-2.230;2022-12-18T11:01:14;3.80;99.90
37222;DHT22;23119;51.842;-2.230;2022-12-18T11:06:23;3.70;99.90
37222;DHT22;23119;51.842;-2.230;2022-12-18T11:09:05;3.70;99.90
37222;DHT22;23119;51.842;-2.230;2022-12-18T11:11:32;3.70;99.90
37222;DHT22;23119;51.842;-2.230;2022-12-18T11:14:17;3.80;99.90
37222;DHT22;23119;51.842;-2.230;2022-12-18T11:16:49;3.80;99.90
37222;DHT22;23119;51.842;-2.230;2022-12-18T11:19:36;3.70;99.90
37222;DHT22;23119;51.842;-2.230;2022-12-18T11:22:24;3.70;99.90
37222;DHT22;23119;51.842;-2.230;2022-12-18T11:25:01;3.70;99.90
37222;DHT22;23119;51.842;-2.230;2022-12-18T11:27:29;3.70;99.90
37222;DHT22;23119;51.842;-2.230;2022-12-18T11:30:28;3.70;99.90
37222;DHT22;23119;51.842;-2.230;2022-12-18T11:33:09;3.70;99.90
37222;DHT22;23119;51.842;-2.230;2022-12-18T11:35:49;5.70;99.90
37222;DHT22;23119;51.842;-2.230;2022-12-18T11:38:28;3.80;99.90
37222;DHT22;23119;51.842;-2.230;2022-12-18T11:41:04;3.80;99.90
37222;DHT22;23119;51.842;-2.230;2022-12-18T11:43:50;3.90;99.90
37222;DHT22;23119;51.842;-2.230;2022-12-18T11:46:24;3.80;99.90
37222;DHT22;23119;51.842;-2.230;2022-12-18T11:49:33;3.90;99.90
37222;DHT22;23119;51.842;-2.230;2022-12-18T11:52:23;3.80;99.90
37222;DHT22;23119;51.842;-2.230;2022-12-18T11:54:52;3.80;99.90
37222;DHT22;23119;51.842;-2.230;2022-12-18T11:57:42;3.90;99.90
37222;DHT22;23119;51.842;-2.230;2022-12-18T12:00:20;3.90;99.90
37222;DHT22;23119;51.842;-2.230;2022-12-18T12:03:19;3.90;99.90
37222;DHT22;23119;51.842;-2.230;2022-12-18T12:05:57;3.90;99.90
37222;DHT22;23119;51.842;-2.230;2022-12-18T12:12:03;3.90;99.90
37222;DHT22;23119;51.842;-2.230;2022-12-18T12:15:04;3.90;99.90
37222;DHT22;23119;51.842;-2.230;2022-12-18T12:18:01;3.90;99.90
37222;DHT22;23119;51.842;-2.230;2022-12-18T12:21:02;3.90;99.90
37222;DHT22;23119;51.842;-2.230;2022-12-18T12:29:32;3.90;99.90
37222;DHT22;23119;51.842;-2.230;2022-12-18T12:40:21;4.10;99.90
37222;DHT22;23119;51.842;-2.230;2022-12-18T12:42:54;4.10;99.90
37222;DHT22;23119;51.842;-2.230;2022-12-18T12:46:05;4.10;99.90
37222;DHT22;23119;51.842;-2.230;2022-12-18T12:51:06;4.20;99.90
37222;DHT22;23119;51.842;-2.230;2022-12-18T12:53:35;4.20;99.90
37222;DHT22;23119;51.842;-2.230;2022-12-18T12:56:02;4.20;99.90
37222;DHT22;23119;51.842;-2.230;2022-12-18T13:07:12;4.30;99.90
37222;DHT22;23119;51.842;-2.230;2022-12-18T13:15:47;4.40;99.90
37222;DHT22;23119;51.842;-2.230;2022-12-18T13:21:09;4.40;99.90
37222;DHT22;23119;51.842;-2.230;2022-12-18T13:23:33;4.40;99.90
37222;DHT22;23119;51.842;-2.230;2022-12-18T13:34:27;4.50;99.90
37222;DHT22;23119;51.842;-2.230;2022-12-18T13:39:47;4.50;99.90
37222;DHT22;23119;51.842;-2.230;2022-12-18T13:45:35;4.50;99.90
37222;DHT22;23119;51.842;-2.230;2022-12-18T13:48:03;4.50;99.90
37222;DHT22;23119;51.842;-2.230;2022-12-18T13:50:29;4.60;99.90
37222;DHT22;23119;51.842;-2.230;2022-12-18T13:52:55;4.60;99.90
37222;DHT22;23119;51.842;-2.230;2022-12-18T13:55:22;4.70;99.90
37222;DHT22;23119;51.842;-2.230;2022-12-18T13:58:03;4.80;99.90
37222;DHT22;23119;51.842;-2.230;2022-12-18T14:00:41;5.00;99.90
37222;DHT22;23119;51.842;-2.230;2022-12-18T14:03:22;4.90;99.90
37222;DHT22;23119;51.842;-2.230;2022-12-18T14:05:54;5.00;99.90
37222;DHT22;23119;51.842;-2.230;2022-12-18T14:08:21;5.10;99.90
37222;DHT22;23119;51.842;-2.230;2022-12-18T14:10:48;5.20;99.90
37222;DHT22;23119;51.842;-2.230;2022-12-18T14:13:37;5.30;99.90
37222;DHT22;23119;51.842;-2.230;2022-12-18T14:16:06;5.40;99.90
37222;DHT22;23119;51.842;-2.230;2022-12-18T14:18:50;5.40;99.90
37222;DHT22;23119;51.842;-2.230;2022-12-18T14:21:29;5.50;99.90
37222;DHT22;23119;51.842;-2.230;2022-12-18T14:24:20;5.60;99.90
37222;DHT22;23119;51.842;-2.230;2022-12-18T14:26:50;5.60;99.90
37222;DHT22;23119;51.842;-2.230;2022-12-18T14:29:31;5.70;99.90
37222;DHT22;23119;51.842;-2.230;2022-12-18T14:32:19;5.80;99.90
37222;DHT22;23119;51.842;-2.230;2022-12-18T14:34:47;5.90;99.90
37222;DHT22;23119;51.842;-2.230;2022-12-18T14:37:16;6.00;99.90
37222;DHT22;23119;51.842;-2.230;2022-12-18T14:39:56;6.00;99.90
37222;DHT22;23119;51.842;-2.230;2022-12-18T14:42:26;6.10;99.90
37222;DHT22;23119;51.842;-2.230;2022-12-18T14:47:59;6.30;99.90
37222;DHT22;23119;51.842;-2.230;2022-12-18T14:50:26;6.30;99.90
37222;DHT22;23119;51.842;-2.230;2022-12-18T14:52:59;6.30;99.90
37222;DHT22;23119;51.842;-2.230;2022-12-18T14:55:25;6.30;99.90
37222;DHT22;23119;51.842;-2.230;2022-12-18T14:57:53;6.40;99.90
37222;DHT22;23119;51.842;-2.230;2022-12-18T15:00:23;6.40;99.90
37222;DHT22;23119;51.842;-2.230;2022-12-18T15:02:57;6.50;99.90
37222;DHT22;23119;51.842;-2.230;2022-12-18T15:05:31;6.50;99.90
37222;DHT22;23119;51.842;-2.230;2022-12-18T15:08:00;6.60;99.90
37222;DHT22;23119;51.842;-2.230;2022-12-18T15:10:45;6.70;99.90
37222;DHT22;23119;51.842;-2.230;2022-12-18T15:13:22;6.80;99.90
37222;DHT22;23119;51.842;-2.230;2022-12-18T15:15:56;6.80;99.90
37222;DHT22;23119;51.842;-2.230;2022-12-18T15:18:46;6.90;99.90
37222;DHT22;23119;51.842;-2.230;2022-12-18T15:21:19;6.90;99.90
37222;DHT22;23119;51.842;-2.230;2022-12-18T15:23:50;7.00;99.90
37222;DHT22;23119;51.842;-2.230;2022-12-18T15:26:20;7.00;99.90
37222;DHT22;23119;51.842;-2.230;2022-12-18T15:28:57;7.00;99.90
37222;DHT22;23119;51.842;-2.230;2022-12-18T15:31:33;7.10;99.90
37222;DHT22;23119;51.842;-2.230;2022-12-18T15:34:13;7.20;99.90
37222;DHT22;23119;51.842;-2.230;2022-12-18T15:36:41;7.20;99.90
37222;DHT22;23119;51.842;-2.230;2022-12-18T15:39:11;7.30;99.90
37222;DHT22;23119;51.842;-2.230;2022-12-18T15:41:37;7.30;99.90
37222;DHT22;23119;51.842;-2.230;2022-12-18T15:44:37;7.40;99.90
37222;DHT22;23119;51.842;-2.230;2022-12-18T15:47:10;7.40;99.90
37222;DHT22;23119;51.842;-2.230;2022-12-18T15:49:36;7.40;99.90
37222;DHT22;23119;51.842;-2.230;2022-12-18T15:52:05;7.50;99.90
37222;DHT22;23119;51.842;-2.230;2022-12-18T15:54:35;7.50;99.90
37222;DHT22;23119;51.842;-2.230;2022-12-18T15:57:21;7.50;99.90
37222;DHT22;23119;51.842;-2.230;2022-12-18T15:59:54;7.50;99.90
37222;DHT22;23119;51.842;-2.230;2022-12-18T16:02:26;7.60;99.90
37222;DHT22;23119;51.842;-2.230;2022-12-18T16:04:54;7.60;99.90
37222;DHT22;23119;51.842;-2.230;2022-12-18T16:07:21;7.70;99.90
37222;DHT22;23119;51.842;-2.230;2022-12-18T16:09:51;7.70;99.90
37222;DHT22;23119;51.842;-2.230;2022-12-18T16:12:21;7.80;99.90
37222;DHT22;23119;51.842;-2.230;2022-12-18T16:14:47;7.80;99.90
37222;DHT22;23119;51.842;-2.230;2022-12-18T16:17:14;7.90;99.90
37222;DHT22;23119;51.842;-2.230;2022-12-18T16:19:40;7.90;99.90
37222;DHT22;23119;51.842;-2.230;2022-12-18T16:22:18;7.90;99.90
37222;DHT22;23119;51.842;-2.230;2022-12-18T16:24:48;7.90;99.90
37222;DHT22;23119;51.842;-2.230;2022-12-18T16:27:19;7.90;99.90
37222;DHT22;23119;51.842;-2.230;2022-12-18T16:29:45;9.20;99.90
37222;DHT22;23119;51.842;-2.230;2022-12-18T16:32:16;8.00;99.90
37222;DHT22;23119;51.842;-2.230;2022-12-18T16:34:43;8.00;99.90
37222;DHT22;23119;51.842;-2.230;2022-12-18T16:37:11;8.10;99.90
37222;DHT22;23119;51.842;-2.230;2022-12-18T16:39:38;8.20;99.90
37222;DHT22;23119;51.842;-2.230;2022-12-18T16:42:22;8.20;99.90
37222;DHT22;23119;51.842;-2.230;2022-12-18T16:44:55;8.20;99.90
37222;DHT22;23119;51.842;-2.230;2022-12-18T16:47:20;8.20;99.90
37222;DHT22;23119;51.842;-2.230;2022-12-18T16:49:46;8.30;99.90
37222;DHT22;23119;51.842;-2.230;2022-12-18T16:52:15;8.30;99.90
37222;DHT22;23119;51.842;-2.230;2022-12-18T16:54:44;8.30;99.90
37222;DHT22;23119;51.842;-2.230;2022-12-18T16:57:14;8.30;99.90
37222;DHT22;23119;51.842;-2.230;2022-12-18T16:59:44;8.30;99.90
37222;DHT22;23119;51.842;-2.230;2022-12-18T17:02:22;8.30;99.90
37222;DHT22;23119;51.842;-2.230;2022-12-18T17:04:51;8.40;99.90
37222;DHT22;23119;51.842;-2.230;2022-12-18T17:07:17;8.40;99.90
37222;DHT22;23119;51.842;-2.230;2022-12-18T17:09:46;8.40;99.90
37222;DHT22;23119;51.842;-2.230;2022-12-18T17:12:14;8.50;99.90
37222;DHT22;23119;51.842;-2.230;2022-12-18T17:14:42;8.50;99.90
37222;DHT22;23119;51.842;-2.230;2022-12-18T17:17:11;8.50;99.90
37222;DHT22;23119;51.842;-2.230;2022-12-18T17:19:36;8.50;99.90
37222;DHT22;23119;51.842;-2.230;2022-12-18T17:22:05;8.50;99.90
37222;DHT22;23119;51.842;-2.230;2022-12-18T17:24:34;8.50;99.90
37222;DHT22;23119;51.842;-2.230;2022-12-18T17:27:01;8.50;99.90
37222;DHT22;23119;51.842;-2.230;2022-12-18T17:29:27;8.60;99.90
37222;DHT22;23119;51.842;-2.230;2022-12-18T17:31:55;8.60;99.90
37222;DHT22;23119;51.842;-2.230;2022-12-18T17:34:21;8.60;99.90
37222;DHT22;23119;51.842;-2.230;2022-12-18T17:36:48;8.70;99.90
37222;DHT22;23119;51.842;-2.230;2022-12-18T17:39:20;8.70;99.90
37222;DHT22;23119;51.842;-2.230;2022-12-18T17:41:47;8.70;99.90
37222;DHT22;23119;51.842;-2.230;2022-12-18T17:44:16;8.70;99.90
37222;DHT22;23119;51.842;-2.230;2022-12-18T17:47:00;8.70;99.90